ADDS METAR Data INFO
IDs: Format: Raw Decoded Include TAF

Data at: 2243 UTC 19 Jul 2018

METAR for:KCKB (Clarksburg/NC West V, WV, US)
Text:KCKB 192153Z AUTO 00000KT 10SM CLR 31/13 A3004 RMK AO2 SLP156 T03060133
Temperature: 30.6°C ( 87°F)
Dewpoint: 13.3°C ( 56°F) [RH = 35%]
Pressure (altimeter):30.04 inches Hg (1017.4 mb) [Sea level pressure: 1015.6 mb]
Winds:calm
Visibility:10 or more sm (16+ km)
Ceiling:at least 12,000 feet AGL
Clouds:sky clear below 12,000 feet AGL
QC Flag:automated observation with no human augmentation
Text:KCKB 192053Z AUTO 00000KT 10SM 30/13 A3004 RMK AO2 SLP159 T03000133
Temperature: 30.0°C ( 86°F)
Dewpoint: 13.3°C ( 56°F) [RH = 36%]
Pressure (altimeter):30.04 inches Hg (1017.4 mb) [Sea level pressure: 1015.9 mb]
Winds:calm
Visibility:10 or more sm (16+ km)
QC Flag:automated observation with no human augmentation
Text:KCKB 191953Z 24003KT 10SM CLR 29/13 A3005 RMK AO2 SLP162 T02940133
Temperature: 29.4°C ( 85°F)
Dewpoint: 13.3°C ( 56°F) [RH = 37%]
Pressure (altimeter):30.05 inches Hg (1017.7 mb) [Sea level pressure: 1016.2 mb]
Winds:from the WSW (240 degrees) at 3 MPH (3 knots; 1.5 m/s)
Visibility:10 or more sm (16+ km)
Ceiling:at least 12,000 feet AGL
Clouds:sky clear below 12,000 feet AGL
Text:KCKB 191853Z 00000KT 10SM CLR 29/14 A3007 RMK AO2 SLP167 T02940139
Temperature: 29.4°C ( 85°F)
Dewpoint: 13.9°C ( 57°F) [RH = 39%]
Pressure (altimeter):30.07 inches Hg (1018.4 mb) [Sea level pressure: 1016.7 mb]
Winds:calm
Visibility:10 or more sm (16+ km)
Ceiling:at least 12,000 feet AGL
Clouds:sky clear below 12,000 feet AGL
Text:KCKB 191753Z 03005KT 10SM CLR 29/13 A3008 RMK AO2 SLP173 T02940133 10294 20167 58011
Temperature: 29.4°C ( 85°F)
Dewpoint: 13.3°C ( 56°F) [RH = 37%]
Pressure (altimeter):30.08 inches Hg (1018.7 mb) [Sea level pressure: 1017.3 mb]
Winds:from the NNE (30 degrees) at 6 MPH (5 knots; 2.6 m/s)
Visibility:10 or more sm (16+ km)
Ceiling:at least 12,000 feet AGL
Clouds:sky clear below 12,000 feet AGL
Text:KCKB 191653Z VRB03KT 10SM CLR 28/13 A3010 RMK AO2 SLP178 T02780133
Temperature: 27.8°C ( 82°F)
Dewpoint: 13.3°C ( 56°F) [RH = 41%]
Pressure (altimeter):30.10 inches Hg (1019.4 mb) [Sea level pressure: 1017.8 mb]
Winds:variable direction winds at 3 MPH (3 knots; 1.5 m/s)
Visibility:10 or more sm (16+ km)
Ceiling:at least 12,000 feet AGL
Clouds:sky clear below 12,000 feet AGL
Text:KCKB 191553Z 00000KT 10SM CLR 27/14 A3011 RMK AO2 SLP182 T02720144
Temperature: 27.2°C ( 81°F)
Dewpoint: 14.4°C ( 58°F) [RH = 45%]
Pressure (altimeter):30.11 inches Hg (1019.7 mb) [Sea level pressure: 1018.2 mb]
Winds:calm
Visibility:10 or more sm (16+ km)
Ceiling:at least 12,000 feet AGL
Clouds:sky clear below 12,000 feet AGL
Text:KCKB 191453Z VRB03KT 10SM CLR 26/14 A3012 RMK AO2 SLP184 T02560144 50001
Temperature: 25.6°C ( 78°F)
Dewpoint: 14.4°C ( 58°F) [RH = 50%]
Pressure (altimeter):30.12 inches Hg (1020.1 mb) [Sea level pressure: 1018.4 mb]
Winds:variable direction winds at 3 MPH (3 knots; 1.5 m/s)
Visibility:10 or more sm (16+ km)
Ceiling:at least 12,000 feet AGL
Clouds:sky clear below 12,000 feet AGL
Text:KCKB 191353Z 11003KT 10SM CLR 23/14 A3012 RMK AO2 SLP187 T02280139
Temperature: 22.8°C ( 73°F)
Dewpoint: 13.9°C ( 57°F) [RH = 57%]
Pressure (altimeter):30.12 inches Hg (1020.1 mb) [Sea level pressure: 1018.7 mb]
Winds:from the ESE (110 degrees) at 3 MPH (3 knots; 1.5 m/s)
Visibility:10 or more sm (16+ km)
Ceiling:at least 12,000 feet AGL
Clouds:sky clear below 12,000 feet AGL
Text:KCKB 191253Z 07003KT 10SM CLR 20/14 A3012 RMK AO2 SLP185 T02000139
Temperature: 20.0°C ( 68°F)
Dewpoint: 13.9°C ( 57°F) [RH = 68%]
Pressure (altimeter):30.12 inches Hg (1020.1 mb) [Sea level pressure: 1018.5 mb]
Winds:from the ENE (70 degrees) at 3 MPH (3 knots; 1.5 m/s)
Visibility:10 or more sm (16+ km)
Ceiling:at least 12,000 feet AGL
Clouds:sky clear below 12,000 feet AGL
Text:KCKB 191153Z 00000KT 10SM CLR 17/14 A3011 RMK AO2 SLP183 7//// T01720139 10172 20128 51007
Temperature: 17.2°C ( 63°F)
Dewpoint: 13.9°C ( 57°F) [RH = 81%]
Pressure (altimeter):30.11 inches Hg (1019.7 mb) [Sea level pressure: 1018.3 mb]
Winds:calm
Visibility:10 or more sm (16+ km)
Ceiling:at least 12,000 feet AGL
Clouds:sky clear below 12,000 feet AGL
Text:KCKB 191053Z AUTO 00000KT 10SM CLR 14/12 A3011 RMK AO2 SLP183 T01390122
Temperature: 13.9°C ( 57°F)
Dewpoint: 12.2°C ( 54°F) [RH = 89%]
Pressure (altimeter):30.11 inches Hg (1019.7 mb) [Sea level pressure: 1018.3 mb]
Winds:calm
Visibility:10 or more sm (16+ km)
Ceiling:at least 12,000 feet AGL
Clouds:sky clear below 12,000 feet AGL
QC Flag:automated observation with no human augmentation
Text:KCKB 190953Z AUTO 00000KT 9SM CLR 14/12 A3010 RMK AO2 SLP180 T01390122
Temperature: 13.9°C ( 57°F)
Dewpoint: 12.2°C ( 54°F) [RH = 89%]
Pressure (altimeter):30.10 inches Hg (1019.4 mb) [Sea level pressure: 1018.0 mb]
Winds:calm
Visibility: 9 sm ( 14 km)
Ceiling:at least 12,000 feet AGL
Clouds:sky clear below 12,000 feet AGL
QC Flag:automated observation with no human augmentation
Text:KCKB 190853Z AUTO 00000KT 10SM CLR 14/12 A3009 RMK AO2 SLP176 T01440122 51000
Temperature: 14.4°C ( 58°F)
Dewpoint: 12.2°C ( 54°F) [RH = 87%]
Pressure (altimeter):30.09 inches Hg (1019.0 mb) [Sea level pressure: 1017.6 mb]
Winds:calm
Visibility:10 or more sm (16+ km)
Ceiling:at least 12,000 feet AGL
Clouds:sky clear below 12,000 feet AGL
QC Flag:automated observation with no human augmentation
Text:KCKB 190753Z AUTO 00000KT 10SM CLR 14/12 A3009 RMK AO2 SLP175 T01390122
Temperature: 13.9°C ( 57°F)
Dewpoint: 12.2°C ( 54°F) [RH = 89%]
Pressure (altimeter):30.09 inches Hg (1019.0 mb) [Sea level pressure: 1017.5 mb]
Winds:calm
Visibility:10 or more sm (16+ km)
Ceiling:at least 12,000 feet AGL
Clouds:sky clear below 12,000 feet AGL
QC Flag:automated observation with no human augmentation
Text:KCKB 190653Z AUTO 00000KT 10SM CLR 15/13 A3010 RMK AO2 SLPNO T01500128
Temperature: 15.0°C ( 59°F)
Dewpoint: 12.8°C ( 55°F) [RH = 87%]
Pressure (altimeter):30.10 inches Hg (1019.4 mb)
Winds:calm
Visibility:10 or more sm (16+ km)
Ceiling:at least 12,000 feet AGL
Clouds:sky clear below 12,000 feet AGL
QC Flag:automated observation with no human augmentation
Text:KCKB 190553Z AUTO 00000KT 10SM CLR 14/13 A3009 RMK AO2 SLP177 T01390128 10239 20139 51004
Temperature: 13.9°C ( 57°F)
Dewpoint: 12.8°C ( 55°F) [RH = 93%]
Pressure (altimeter):30.09 inches Hg (1019.0 mb) [Sea level pressure: 1017.7 mb]
Winds:calm
Visibility:10 or more sm (16+ km)
Ceiling:at least 12,000 feet AGL
Clouds:sky clear below 12,000 feet AGL
QC Flag:automated observation with no human augmentation
Text:KCKB 190453Z AUTO 00000KT 10SM CLR 16/13 A3009 RMK AO2 SLP175 T01560128 402830156
Temperature: 15.6°C ( 60°F)
Dewpoint: 12.8°C ( 55°F) [RH = 83%]
Pressure (altimeter):30.09 inches Hg (1019.0 mb) [Sea level pressure: 1017.5 mb]
Winds:calm
Visibility:10 or more sm (16+ km)
Ceiling:at least 12,000 feet AGL
Clouds:sky clear below 12,000 feet AGL
QC Flag:automated observation with no human augmentation
Text:KCKB 190353Z AUTO 00000KT 10SM CLR 16/14 A3008 RMK AO2 SLP175 T01610139
Temperature: 16.1°C ( 61°F)
Dewpoint: 13.9°C ( 57°F) [RH = 87%]
Pressure (altimeter):30.08 inches Hg (1018.7 mb) [Sea level pressure: 1017.5 mb]
Winds:calm
Visibility:10 or more sm (16+ km)
Ceiling:at least 12,000 feet AGL
Clouds:sky clear below 12,000 feet AGL
QC Flag:automated observation with no human augmentation
Text:KCKB 190253Z AUTO 00000KT 10SM CLR 18/14 A3008 RMK AO2 SLP173 T01780139 53012
Temperature: 17.8°C ( 64°F)
Dewpoint: 13.9°C ( 57°F) [RH = 78%]
Pressure (altimeter):30.08 inches Hg (1018.7 mb) [Sea level pressure: 1017.3 mb]
Winds:calm
Visibility:10 or more sm (16+ km)
Ceiling:at least 12,000 feet AGL
Clouds:sky clear below 12,000 feet AGL
QC Flag:automated observation with no human augmentation
Text:KCKB 190153Z AUTO 00000KT 10SM CLR 19/13 A3006 RMK AO2 SLP167 T01940133
Temperature: 19.4°C ( 67°F)
Dewpoint: 13.3°C ( 56°F) [RH = 68%]
Pressure (altimeter):30.06 inches Hg (1018.0 mb) [Sea level pressure: 1016.7 mb]
Winds:calm
Visibility:10 or more sm (16+ km)
Ceiling:at least 12,000 feet AGL
Clouds:sky clear below 12,000 feet AGL
QC Flag:automated observation with no human augmentation
Text:KCKB 190053Z 04003KT 10SM CLR 22/12 A3005 RMK AO2 SLP161 T02220122
Temperature: 22.2°C ( 72°F)
Dewpoint: 12.2°C ( 54°F) [RH = 53%]
Pressure (altimeter):30.05 inches Hg (1017.7 mb) [Sea level pressure: 1016.1 mb]
Winds:from the NE (40 degrees) at 3 MPH (3 knots; 1.5 m/s)
Visibility:10 or more sm (16+ km)
Ceiling:at least 12,000 feet AGL
Clouds:sky clear below 12,000 feet AGL
Text:KCKB 182353Z 36004KT 10SM CLR 23/12 A3004 RMK AO2 SLP161 6//// T02330122 10283 20233 55001
Temperature: 23.3°C ( 74°F)
Dewpoint: 12.2°C ( 54°F) [RH = 50%]
Pressure (altimeter):30.04 inches Hg (1017.4 mb) [Sea level pressure: 1016.1 mb]
Winds:from the N (360 degrees) at 5 MPH (4 knots; 2.1 m/s)
Visibility:10 or more sm (16+ km)
Ceiling:at least 12,000 feet AGL
Clouds:sky clear below 12,000 feet AGL
Text:KCKB 182253Z 33006KT 10SM CLR 27/11 A3004 RMK AO2 SLP158 T02670111
Temperature: 26.7°C ( 80°F)
Dewpoint: 11.1°C ( 52°F) [RH = 38%]
Pressure (altimeter):30.04 inches Hg (1017.4 mb) [Sea level pressure: 1015.8 mb]
Winds:from the NNW (330 degrees) at 7 MPH (6 knots; 3.1 m/s)
Visibility:10 or more sm (16+ km)
Ceiling:at least 12,000 feet AGL
Clouds:sky clear below 12,000 feet AGL